Time;durP1;ratioP1;P1;durP2;ratioP2;P2;SDS_P1;SDS_P2;PMS_P1;PMS_P2;Temp;Humidity;BMP_temperature;BMP_pressure;BME280_temperature;BME280_humidity;BME280_pressure;Samples;Min_cycle;Max_cycle;Signal;HPM_P1;HPM_P2
2020/12/06 00:01:44;;;;;;;38.77;15.67;;;;;;;-3.04;79.01;101168.50;130384;1089;23171;-62
2020/12/06 00:04:11;;;;;;;165.67;46.43;;;;;;;-3.07;78.90;101172.27;130513;1090;23229;-62
2020/12/06 00:06:39;;;;;;;192.43;46.63;;;;;;;-3.09;79.36;101170.70;130347;1089;23194;-62
2020/12/06 00:09:06;;;;;;;100.83;27.10;;;;;;;-3.09;79.44;101173.36;130503;1095;23139;-62
2020/12/06 00:11:34;;;;;;;155.53;41.57;;;;;;;-3.12;78.81;101173.62;130339;1090;24254;-62
2020/12/06 00:14:01;;;;;;;560.40;126.07;;;;;;;-3.13;79.34;101169.26;130510;1090;23238;-62
2020/12/06 00:16:30;;;;;;;260.77;48.17;;;;;;;-3.15;79.00;101168.54;130365;1089;23225;-61
2020/12/06 00:18:58;;;;;;;73.53;23.10;;;;;;;-3.18;78.96;101168.82;130526;1095;23202;-62
2020/12/06 00:21:28;;;;;;;67.93;22.50;;;;;;;-3.23;78.60;101172.71;130529;1090;23178;-61
2020/12/06 00:23:56;;;;;;;630.13;146.40;;;;;;;-3.27;78.35;101173.94;130330;1090;23406;-62
2020/12/06 00:26:23;;;;;;;60.90;20.20;;;;;;;-3.28;78.38;101180.23;130280;1089;24211;-62
2020/12/06 00:28:51;;;;;;;152.77;34.27;;;;;;;-3.29;78.57;101170.55;130359;1095;23158;-62
2020/12/06 00:31:19;;;;;;;93.67;32.77;;;;;;;-3.29;78.06;101180.36;130496;1089;23284;-62
2020/12/06 00:33:46;;;;;;;143.07;36.67;;;;;;;-3.35;78.25;101179.08;130349;1089;23218;-61
2020/12/06 00:36:14;;;;;;;159.73;34.57;;;;;;;-3.35;78.19;101179.08;130528;1090;23157;-61
2020/12/06 00:38:41;;;;;;;95.23;24.50;;;;;;;-3.38;78.59;101178.48;130366;1089;24109;-61
2020/12/06 00:41:16;;;;;;;51.13;17.57;;;;;;;-3.40;77.74;101172.42;130496;1089;23204;-61
2020/12/06 00:43:43;;;;;;;244.87;62.37;;;;;;;-3.42;77.50;101171.70;130386;1095;23169;-62
2020/12/06 00:46:19;;;;;;;92.33;21.03;;;;;;;-3.45;78.08;101169.28;128528;1090;23283;-61
2020/12/06 00:48:47;;;;;;;120.60;26.13;;;;;;;-3.48;77.89;101167.75;130342;1090;23190;-61
2020/12/06 00:51:15;;;;;;;64.80;23.67;;;;;;;-3.51;77.70;101165.33;130494;1089;25428;-62
2020/12/06 00:53:45;;;;;;;59.33;16.97;;;;;;;-3.53;77.33;101166.42;130351;1090;23208;-62
2020/12/06 00:56:19;;;;;;;94.63;19.77;;;;;;;-3.57;77.67;101160.50;130487;1090;23233;-61
2020/12/06 00:58:46;;;;;;;178.67;41.00;;;;;;;-3.60;76.95;101166.92;130347;1089;23159;-61
2020/12/06 01:01:15;;;;;;;53.40;17.60;;;;;;;-3.61;77.79;101167.08;130551;1090;23202;-61
2020/12/06 01:03:42;;;;;;;78.03;26.23;;;;;;;-3.66;77.01;101174.59;130377;1095;23186;-61
2020/12/06 01:06:16;;;;;;;148.10;33.97;;;;;;;-3.68;77.51;101171.20;130503;1090;24209;-62
2020/12/06 01:08:44;;;;;;;80.80;21.40;;;;;;;-3.70;76.96;101170.47;130392;1090;28983;-62
2020/12/06 01:11:12;;;;;;;75.80;21.30;;;;;;;-3.74;77.27;101169.88;130498;1096;24085;-61
2020/12/06 01:13:40;;;;;;;62.43;20.50;;;;;;;-3.75;76.91;101170.84;130412;1090;23262;-61
2020/12/06 01:16:08;;;;;;;45.27;14.73;;;;;;;-3.80;76.64;101165.06;130435;1089;23927;-62
2020/12/06 01:18:37;;;;;;;91.57;23.97;;;;;;;-3.84;77.73;101171.61;130508;1095;24129;-62
2020/12/06 01:21:04;;;;;;;51.90;16.53;;;;;;;-3.89;76.70;101165.80;130351;1090;23272;-62
2020/12/06 01:23:32;;;;;;;83.60;27.37;;;;;;;-3.93;77.68;101167.89;130468;1090;23514;-61
2020/12/06 01:26:00;;;;;;;65.90;21.10;;;;;;;-3.97;77.23;101166.44;130372;1090;23188;-62
2020/12/06 01:28:33;;;;;;;30.07;12.77;;;;;;;-4.00;77.39;101169.34;130465;1090;23195;-62
2020/12/06 01:31:01;;;;;;;32.17;12.33;;;;;;;-4.04;76.24;101173.21;130342;1089;23229;-61
2020/12/06 01:33:29;;;;;;;27.80;10.87;;;;;;;-4.10;77.17;101168.40;130524;1095;23245;-62
2020/12/06 01:35:58;;;;;;;47.60;16.43;;;;;;;-4.14;76.39;101174.08;130354;1089;23179;-62
2020/12/06 01:38:26;;;;;;;77.93;25.03;;;;;;;-4.17;75.77;101169.00;130502;1090;25797;-62
2020/12/06 01:40:56;;;;;;;49.73;17.67;;;;;;;-4.21;76.87;101168.42;130395;1089;23178;-62
2020/12/06 01:43:25;;;;;;;26.07;11.00;;;;;;;-4.23;76.48;101173.02;130482;1090;23165;-61
2020/12/06 01:45:53;;;;;;;51.20;17.27;;;;;;;-4.24;76.79;101173.98;130351;1090;23253;-62
2020/12/06 01:48:22;;;;;;;29.73;11.20;;;;;;;-4.27;76.95;101169.75;130526;1090;23258;-62
2020/12/06 01:50:49;;;;;;;48.17;15.70;;;;;;;-4.29;76.42;101165.52;130168;1090;23200;-62
2020/12/06 01:53:17;;;;;;;31.80;11.87;;;;;;;-4.30;76.88;101164.66;130455;1090;23193;-62
2020/12/06 01:55:45;;;;;;;21.60;9.30;;;;;;;-4.30;76.42;101163.81;130399;1090;23166;-62
2020/12/06 01:58:13;;;;;;;29.03;10.73;;;;;;;-4.34;75.48;101168.56;130260;1090;23306;-62
2020/12/06 02:00:40;;;;;;;38.93;14.70;;;;;;;-4.38;75.87;101166.25;130352;1089;23174;-62
2020/12/06 02:03:08;;;;;;;20.87;9.13;;;;;;;-4.42;76.06;101165.64;130498;1090;23902;-62
2020/12/06 02:05:36;;;;;;;20.20;9.40;;;;;;;-4.44;76.27;101162.25;130528;1089;23229;-61
2020/12/06 02:08:03;;;;;;;22.17;9.33;;;;;;;-4.46;76.32;101168.66;130260;1090;24005;-62
2020/12/06 02:10:52;;;;;;;28.20;11.77;;;;;;;-4.71;76.18;101137.84;130415;1090;24568;-62
2020/12/06 02:13:23;;;;;;;23.13;8.50;;;;;;;-4.53;76.47;101167.47;130477;1095;23220;-62
2020/12/06 02:15:52;;;;;;;14.80;8.13;;;;;;;-4.56;76.35;101175.68;130448;1090;23834;-62
2020/12/06 02:18:19;;;;;;;24.77;9.13;;;;;;;-4.60;75.62;101169.75;130280;1089;23327;-62
2020/12/06 02:20:47;;;;;;;17.40;8.37;;;;;;;-4.60;75.68;101179.53;130489;1096;23212;-62
2020/12/06 02:23:18;;;;;;;16.47;9.37;;;;;;;-4.60;75.40;101176.88;130304;1089;23335;-62
2020/12/06 02:25:45;;;;;;;18.60;7.83;;;;;;;-4.58;76.69;101177.61;130470;1090;23248;-61
2020/12/06 02:28:13;;;;;;;11.80;6.97;;;;;;;-4.54;75.75;101176.41;130349;1089;23175;-62
2020/12/06 02:30:44;;;;;;;15.87;7.83;;;;;;;-4.51;76.85;101178.84;130482;1095;23230;-62
2020/12/06 02:33:15;;;;;;;13.97;7.27;;;;;;;-4.50;76.16;101173.40;130348;1090;23216;-62
2020/12/06 02:35:42;;;;;;;15.70;7.60;;;;;;;-4.50;76.87;101184.03;130494;1090;23234;-62
2020/12/06 02:38:10;;;;;;;16.00;7.47;;;;;;;-4.49;76.69;101187.55;130353;1090;23164;-62
2020/12/06 02:40:38;;;;;;;15.27;7.47;;;;;;;-4.52;76.65;101188.63;130502;1090;23288;-62
2020/12/06 02:43:06;;;;;;;16.47;8.53;;;;;;;-4.55;76.25;101185.35;130353;1090;23202;-62
2020/12/06 02:45:33;;;;;;;14.35;7.25;;;;;;;-4.54;75.12;101184.39;130487;1090;23183;-62
2020/12/06 02:48:01;;;;;;;21.27;8.67;;;;;;;-4.55;75.65;101178.22;130363;1089;23224;-62
2020/12/06 02:50:28;;;;;;;16.40;7.60;;;;;;;-4.57;75.23;101179.30;130466;1090;23154;-62
2020/12/06 02:52:57;;;;;;;16.27;7.97;;;;;;;-4.59;75.20;101186.55;130345;1089;23258;-62
2020/12/06 02:55:25;;;;;;;14.77;7.07;;;;;;;-4.64;75.76;101195.76;130533;1095;23174;-63
2020/12/06 02:57:53;;;;;;;18.27;6.40;;;;;;;-4.66;76.02;101194.17;130377;1090;23177;-62
2020/12/06 03:00:20;;;;;;;19.53;8.30;;;;;;;-4.69;75.40;101189.94;130490;1090;23167;-62
2020/12/06 03:02:48;;;;;;;15.27;6.47;;;;;;;-4.72;75.34;101187.52;130498;1095;23225;-62
2020/12/06 03:05:16;;;;;;;17.60;6.37;;;;;;;-4.76;74.46;101191.36;130417;1090;23308;-62
2020/12/06 03:07:46;;;;;;;9.93;5.07;;;;;;;-4.81;76.08;101180.26;130466;1089;23212;-62
2020/12/06 03:10:13;;;;;;;15.10;6.67;;;;;;;-4.86;75.82;101181.57;130410;1090;23217;-62
2020/12/06 03:12:40;;;;;;;18.10;8.07;;;;;;;-4.93;75.89;101194.50;130509;1089;23158;-62
2020/12/06 03:15:08;;;;;;;15.10;6.53;;;;;;;-4.99;75.52;101187.83;130300;1089;23225;-62
2020/12/06 03:17:36;;;;;;;12.90;6.20;;;;;;;-5.03;74.99;101190.83;130521;1089;23230;-62
2020/12/06 03:20:03;;;;;;;14.93;6.10;;;;;;;-5.03;76.11;101201.46;130378;1089;23213;-62
2020/12/06 03:22:33;;;;;;;14.40;6.47;;;;;;;-5.08;75.16;101193.02;130525;1089;23232;-62
2020/12/06 03:25:01;;;;;;;10.00;5.80;;;;;;;-5.10;74.78;101201.09;130337;1089;23161;-63
2020/12/06 03:27:28;;;;;;;16.27;6.53;;;;;;;-5.13;74.78;101203.98;130481;1095;23920;-62
2020/12/06 03:29:56;;;;;;;11.23;5.27;;;;;;;-5.13;74.78;101221.73;130353;1089;23240;-62
2020/12/06 03:32:24;;;;;;;10.77;5.37;;;;;;;-5.14;75.81;101214.72;130503;1089;24153;-62
2020/12/06 03:34:56;;;;;;;14.90;6.40;;;;;;;-5.13;76.18;101216.42;130415;1089;24110;-63
2020/12/06 03:37:24;;;;;;;11.03;5.87;;;;;;;-5.16;75.19;101216.64;130490;1090;23203;-63
2020/12/06 03:39:51;;;;;;;14.83;6.03;;;;;;;-5.19;76.04;101222.21;130363;1090;23231;-62
2020/12/06 03:42:19;;;;;;;10.57;5.27;;;;;;;-5.21;74.45;101229.45;130489;1090;23203;-63
2020/12/06 03:44:47;;;;;;;10.67;5.90;;;;;;;-5.23;75.99;101231.37;130376;1090;24229;-62
2020/12/06 03:47:15;;;;;;;12.57;5.67;;;;;;;-5.21;75.38;101230.30;130501;1090;24506;-63
2020/12/06 03:49:44;;;;;;;10.00;5.30;;;;;;;-5.22;75.74;101233.91;130382;1089;24573;-62
2020/12/06 03:52:11;;;;;;;11.17;5.17;;;;;;;-5.22;75.19;101227.75;130475;1090;23226;-62
2020/12/06 03:54:38;;;;;;;12.17;5.53;;;;;;;-5.24;75.39;101233.17;130512;1090;23248;-62
2020/12/06 03:57:06;;;;;;;10.00;5.40;;;;;;;-5.21;75.66;101227.64;126767;1089;23424;-62
2020/12/06 03:59:39;;;;;;;12.20;5.87;;;;;;;-5.19;74.69;101235.50;130470;1090;23232;-63
2020/12/06 04:02:06;;;;;;;12.93;4.77;;;;;;;-5.19;75.29;101233.66;130328;1090;23159;-63
2020/12/06 04:04:34;;;;;;;16.60;6.40;;;;;;;-5.19;75.02;101235.50;130446;1090;23228;-63
2020/12/06 04:07:04;;;;;;;10.67;5.10;;;;;;;-5.23;75.02;101234.02;130378;1090;23793;-63
2020/12/06 04:09:51;;;;;;;12.98;5.45;;;;;;;-5.26;74.64;101242.22;130484;1090;23231;-63
2020/12/06 04:12:19;;;;;;;10.10;5.80;;;;;;;-5.30;74.56;101238.93;130336;1090;23185;-62
2020/12/06 04:14:46;;;;;;;10.73;5.43;;;;;;;-5.31;75.10;101247.01;130500;1090;23168;-62
2020/12/06 04:17:14;;;;;;;10.93;5.40;;;;;;;-5.33;74.76;101241.81;130317;1090;23259;-63
2020/12/06 04:19:46;;;;;;;11.33;5.10;;;;;;;-5.37;74.23;101241.21;130487;1090;24615;-63
2020/12/06 04:22:13;;;;;;;11.73;5.67;;;;;;;-5.41;74.12;101245.05;130358;1089;23336;-62
2020/12/06 04:24:40;;;;;;;13.97;5.90;;;;;;;-5.42;74.78;101243.35;130473;1090;23244;-63
2020/12/06 04:27:08;;;;;;;16.60;6.00;;;;;;;-5.45;75.32;101240.06;130347;1089;23261;-63
2020/12/06 04:29:36;;;;;;;10.93;5.50;;;;;;;-5.47;74.31;101240.17;130487;1090;23286;-63
2020/12/06 04:32:03;;;;;;;13.13;6.00;;;;;;;-5.49;75.02;101241.28;130344;1090;23884;-62
2020/12/06 04:34:36;;;;;;;11.53;5.30;;;;;;;-5.50;74.01;101243.08;130479;1090;24523;-63
2020/12/06 04:37:05;;;;;;;11.60;6.17;;;;;;;-5.51;75.05;101237.88;130340;1090;23160;-63
2020/12/06 04:39:32;;;;;;;14.90;6.37;;;;;;;-5.54;74.12;101246.06;130498;1090;23234;-63
2020/12/06 04:42:03;;;;;;;11.80;5.57;;;;;;;-5.58;74.55;101233.97;130359;1090;23163;-63
2020/12/06 04:44:31;;;;;;;10.77;5.53;;;;;;;-5.61;74.78;101240.34;130494;1090;23174;-63
2020/12/06 04:47:00;;;;;;;14.37;6.53;;;;;;;-5.62;75.55;101243.11;130397;1089;23280;-63
2020/12/06 04:49:29;;;;;;;11.87;5.67;;;;;;;-5.63;75.12;101236.98;130484;1090;23167;-63
2020/12/06 04:51:57;;;;;;;11.07;5.73;;;;;;;-5.62;75.67;101246.61;130455;1090;23303;-63
2020/12/06 04:54:32;;;;;;;12.13;5.70;;;;;;;-5.61;75.28;101245.66;130123;1088;23274;-63
2020/12/06 04:57:02;;;;;;;13.27;6.27;;;;;;;-5.62;75.48;101235.99;127089;1090;23363;-62
2020/12/06 04:59:29;;;;;;;11.77;6.03;;;;;;;-5.63;74.05;101242.29;130348;1090;23221;-63
2020/12/06 05:02:04;;;;;;;10.53;5.63;;;;;;;-5.62;74.56;101237.80;130514;1095;23181;-64
2020/12/06 05:04:32;;;;;;;11.77;5.20;;;;;;;-5.64;75.11;101251.22;130337;1090;24102;-64
2020/12/06 05:07:00;;;;;;;12.97;5.60;;;;;;;-5.64;75.07;101253.87;130519;1090;23178;-64
2020/12/06 05:09:35;;;;;;;12.83;5.60;;;;;;;-5.63;74.56;101254.72;130139;1090;23285;-64
2020/12/06 05:12:04;;;;;;;9.73;5.23;;;;;;;-5.62;74.23;101254.58;130490;1095;23226;-64
2020/12/06 05:14:31;;;;;;;15.30;5.80;;;;;;;-5.60;74.71;101255.31;130342;1090;23275;-64
2020/12/06 05:16:58;;;;;;;12.43;6.23;;;;;;;-5.60;73.58;101246.50;130499;1090;23192;-65
2020/12/06 05:19:27;;;;;;;13.30;6.87;;;;;;;-5.62;74.15;101253.73;130370;1090;23289;-64
2020/12/06 05:22:45;;;;;;;10.83;5.63;;;;;;;-5.65;73.72;101257.48;125743;1093;23337;-63
2020/12/06 05:25:15;;;;;;;16.47;7.37;;;;;;;-5.66;74.11;101255.78;129989;1093;24219;-62
2020/12/06 05:27:43;;;;;;;12.27;5.23;;;;;;;-5.67;73.91;101266.51;129970;1094;23150;-65
2020/12/06 05:30:11;;;;;;;13.80;5.30;;;;;;;-5.79;74.32;101247.02;129846;1093;24236;-65
2020/12/06 05:32:40;;;;;;;10.47;5.63;;;;;;;-5.70;73.77;101255.15;129957;1093;23164;-65
2020/12/06 05:35:09;;;;;;;11.87;5.73;;;;;;;-5.71;73.99;101260.56;129839;1093;23282;-65
2020/12/06 05:37:41;;;;;;;10.53;4.73;;;;;;;-5.71;72.95;101256.11;129954;1100;23282;-65
2020/12/06 05:40:13;;;;;;;10.40;5.37;;;;;;;-5.70;73.38;101264.92;129835;1101;23172;-64
2020/12/06 05:42:48;;;;;;;10.87;5.37;;;;;;;-5.72;72.75;101248.25;129973;1093;23159;-65
2020/12/06 05:45:17;;;;;;;15.17;6.70;;;;;;;-5.73;73.35;101257.17;129835;1101;23225;-65
2020/12/06 05:47:46;;;;;;;13.90;6.83;;;;;;;-5.74;73.67;101263.44;129939;1093;23217;-65
2020/12/06 05:50:15;;;;;;;13.53;5.93;;;;;;;-5.76;73.61;101257.38;129850;1093;23235;-65
2020/12/06 05:52:43;;;;;;;15.13;5.37;;;;;;;-5.77;73.20;101261.84;129926;1096;23286;-65
2020/12/06 05:55:10;;;;;;;12.03;5.70;;;;;;;-5.77;73.64;101258.38;129840;1100;23159;-66
2020/12/06 05:57:45;;;;;;;8.43;5.03;;;;;;;-5.78;72.76;101269.95;129940;1093;23196;-69
2020/12/06 06:00:12;;;;;;;47.33;21.20;;;;;;;-5.79;72.55;101274.41;129807;1095;23240;-69
2020/12/06 06:02:44;;;;;;;14.53;6.77;;;;;;;-5.80;72.59;101271.86;129927;1096;23169;-69
2020/12/06 06:05:19;;;;;;;12.40;5.77;;;;;;;-5.84;72.21;101279.19;129849;1093;23225;-69
2020/12/06 06:07:47;;;;;;;12.70;5.83;;;;;;;-5.87;72.72;101278.55;129931;1093;24127;-69
2020/12/06 06:10:17;;;;;;;11.37;5.53;;;;;;;-5.90;73.07;101279.64;129802;1096;23165;-69
2020/12/06 06:12:52;;;;;;;9.87;4.83;;;;;;;-5.90;72.71;101284.95;130016;1093;24229;-69
2020/12/06 06:15:19;;;;;;;10.13;4.90;;;;;;;-5.91;72.91;101282.41;129884;1093;23254;-69
2020/12/06 06:17:48;;;;;;;8.30;4.17;;;;;;;-5.93;72.89;101282.54;129925;1100;23247;-68
2020/12/06 06:20:18;;;;;;;9.03;4.70;;;;;;;-5.93;72.66;101287.84;130007;1093;23914;-69
2020/12/06 06:22:48;;;;;;;12.13;5.77;;;;;;;-5.90;72.24;101289.41;129775;1096;24339;-69
2020/12/06 06:25:18;;;;;;;13.00;6.03;;;;;;;-5.89;72.97;101294.61;129670;1093;23184;-65
2020/12/06 06:27:46;;;;;;;10.90;4.77;;;;;;;-5.86;72.59;101291.71;129790;1095;24140;-63
2020/12/06 06:30:14;;;;;;;97.63;37.63;;;;;;;-5.84;72.51;101291.61;129999;1093;23220;-63
2020/12/06 06:32:42;;;;;;;44.60;17.03;;;;;;;-5.82;72.94;101297.66;129792;1093;26974;-63
2020/12/06 06:35:11;;;;;;;54.43;19.27;;;;;;;-5.81;71.95;101294.05;129977;1100;24119;-63
2020/12/06 06:37:38;;;;;;;48.53;15.07;;;;;;;-5.80;73.21;101296.59;129818;1093;23184;-63
2020/12/06 06:40:08;;;;;;;90.83;25.90;;;;;;;-5.80;72.04;101293.94;129962;1093;24125;-63
2020/12/06 06:42:36;;;;;;;54.27;17.03;;;;;;;-5.79;71.91;101295.64;129819;1093;23237;-63
2020/12/06 06:45:08;;;;;;;24.30;10.50;;;;;;;-5.77;72.26;101298.19;129989;1091;23203;-63
2020/12/06 06:47:40;;;;;;;63.17;19.00;;;;;;;-5.75;73.02;101297.09;129849;1094;23151;-63
2020/12/06 06:50:10;;;;;;;24.23;9.60;;;;;;;-5.70;72.61;101291.47;129908;1093;23200;-64
2020/12/06 06:52:40;;;;;;;32.57;11.73;;;;;;;-5.70;72.37;101289.66;129904;1093;24913;-63
2020/12/06 06:55:08;;;;;;;64.23;19.47;;;;;;;-5.66;72.57;101289.45;130016;1093;23170;-59
2020/12/06 06:57:41;;;;;;;21.70;8.73;;;;;;;-5.63;72.18;101297.19;130044;1093;24212;-64
2020/12/06 07:00:08;;;;;;;19.77;8.13;;;;;;;-5.63;72.68;101290.08;130154;1093;23624;-64
2020/12/06 07:02:36;;;;;;;18.23;7.37;;;;;;;-5.61;72.21;101287.28;130044;1093;23218;-63
2020/12/06 07:05:14;;;;;;;19.10;7.43;;;;;;;-5.59;73.20;101288.88;129961;1096;23231;-63
2020/12/06 07:07:49;;;;;;;;;;;;;;;-5.55;72.92;101286.85;130078;1093;23158;-63
2020/12/06 07:10:21;;;;;;;15.60;6.53;;;;;;;-5.53;71.49;101288.45;130053;1098;21377;-64
2020/12/06 07:12:56;;;;;;;11.30;5.33;;;;;;;-5.48;72.99;101286.28;129802;1100;23266;-63
2020/12/06 07:15:26;;;;;;;10.13;4.87;;;;;;;-5.42;72.31;101291.16;129931;1093;23165;-65
2020/12/06 07:17:55;;;;;;;10.33;4.87;;;;;;;-5.38;72.15;101303.27;129952;1093;23647;-64
2020/12/06 07:20:24;;;;;;;8.30;4.90;;;;;;;-5.34;71.92;101301.23;130017;1094;23171;-64
2020/12/06 07:22:55;;;;;;;11.80;5.20;;;;;;;-5.29;72.43;101301.72;129984;1093;23297;-65
2020/12/06 07:25:23;;;;;;;11.23;5.57;;;;;;;-5.25;72.25;101311.17;129893;1095;23859;-66
2020/12/06 07:27:54;;;;;;;12.00;4.83;;;;;;;-5.24;71.96;101298.74;129953;1093;23150;-66
2020/12/06 07:30:22;;;;;;;12.03;6.23;;;;;;;-5.24;72.36;101302.25;129846;1100;23149;-66
2020/12/06 07:32:50;;;;;;;45.43;24.27;;;;;;;-5.23;70.87;101306.60;129951;1093;23917;-66
2020/12/06 07:35:19;;;;;;;82.97;25.07;;;;;;;-5.19;70.99;101305.39;129607;1093;23242;-65
2020/12/06 07:37:47;;;;;;;76.13;22.80;;;;;;;-5.15;72.03;101314.84;130001;1100;23315;-64
2020/12/06 07:40:14;;;;;;;64.20;21.47;;;;;;;-5.13;71.40;101314.73;129901;1093;23260;-64
2020/12/06 07:42:42;;;;;;;71.53;19.30;;;;;;;-5.10;72.18;101303.88;129933;1093;23174;-63
2020/12/06 07:45:09;;;;;;;23.70;9.83;;;;;;;-5.07;70.59;101312.48;129865;1093;23272;-64
2020/12/06 07:47:36;;;;;;;47.40;13.63;;;;;;;-5.06;70.42;101313.33;129988;1100;23257;-64
2020/12/06 07:50:07;;;;;;;24.00;9.05;;;;;;;-5.02;71.76;101315.63;129887;1093;23248;-64
2020/12/06 07:52:35;;;;;;;39.97;13.80;;;;;;;-4.98;70.82;101313.59;129952;1100;23182;-64
2020/12/06 07:55:08;;;;;;;33.23;10.80;;;;;;;-4.94;70.53;101314.22;129815;1096;23209;-64
2020/12/06 07:57:38;;;;;;;26.33;10.67;;;;;;;-4.90;71.06;101308.54;129943;1096;23168;-64
2020/12/06 08:00:07;;;;;;;19.43;7.40;;;;;;;-4.86;71.26;101307.35;129819;1096;23237;-64
2020/12/06 08:02:35;;;;;;;35.20;12.83;;;;;;;-4.82;70.86;101300.86;129906;1093;23183;-63
2020/12/06 08:05:03;;;;;;;36.25;11.90;;;;;;;-4.76;70.97;101311.00;129759;1095;24158;-62
2020/12/06 08:07:37;;;;;;;27.47;9.70;;;;;;;-4.72;70.67;101307.16;125566;1100;23322;-64
2020/12/06 08:10:05;;;;;;;15.00;7.17;;;;;;;-4.68;70.49;101319.27;129827;1093;23168;-66
2020/12/06 08:12:33;;;;;;;21.90;9.70;;;;;;;-4.67;69.60;101315.65;129907;1100;23196;-64
2020/12/06 08:15:02;;;;;;;21.45;8.20;;;;;;;-4.67;70.64;101310.33;130018;1093;23202;-63
2020/12/06 08:17:43;;;;;;;18.07;7.33;;;;;;;-4.62;69.27;101315.31;130177;1093;23156;-63
2020/12/06 08:20:11;;;;;;;13.50;6.13;;;;;;;-4.58;69.18;101319.41;130159;1093;23163;-64
2020/12/06 08:22:48;;;;;;;14.83;5.73;;;;;;;-4.54;69.25;101315.55;130235;1092;23170;-64
2020/12/06 08:25:19;;;;;;;16.23;6.63;;;;;;;-4.49;69.52;101316.06;130199;1098;23173;-64
2020/12/06 08:27:48;;;;;;;17.27;6.70;;;;;;;-4.42;69.51;101314.61;130215;1093;23214;-64
2020/12/06 08:30:16;;;;;;;12.53;6.67;;;;;;;-4.38;69.48;101309.91;130207;1093;23201;-63
2020/12/06 08:32:50;;;;;;;14.90;6.10;;;;;;;-4.35;69.19;101310.53;130133;1093;23230;-63
2020/12/06 08:35:17;;;;;;;12.63;6.60;;;;;;;-4.31;69.37;101305.80;130270;1099;23168;-64
2020/12/06 08:37:45;;;;;;;8.90;5.20;;;;;;;-4.30;68.65;101304.83;130092;1093;23197;-63
2020/12/06 08:40:12;;;;;;;16.70;7.47;;;;;;;-4.29;70.03;101299.39;130191;1093;23152;-63
2020/12/06 08:42:40;;;;;;;12.30;5.47;;;;;;;-4.27;69.11;101302.79;130148;1093;23176;-63
2020/12/06 08:45:07;;;;;;;13.57;6.20;;;;;;;-4.20;68.46;101303.17;130239;1099;23273;-64
2020/12/06 08:47:41;;;;;;;21.33;7.50;;;;;;;-4.18;69.01;101298.55;130116;1093;24059;-64
2020/12/06 08:50:12;;;;;;;14.27;5.57;;;;;;;-4.15;68.99;101289.48;130235;1093;23286;-63
2020/12/06 08:52:40;;;;;;;18.40;8.00;;;;;;;-4.13;68.80;101287.55;130130;1092;23139;-64
2020/12/06 08:55:27;;;;;;;11.77;6.20;;;;;;;-4.11;68.40;101294.46;130153;1093;23210;-64
2020/12/06 08:57:55;;;;;;;15.63;7.37;;;;;;;-4.06;68.05;101289.63;130106;1093;23239;-63
2020/12/06 09:00:30;;;;;;;18.77;5.87;;;;;;;-3.99;68.49;101295.30;130201;1093;23144;-63
2020/12/06 09:02:59;;;;;;;14.17;5.63;;;;;;;-3.94;69.04;101291.32;130098;1093;23955;-63
2020/12/06 09:05:27;;;;;;;14.10;5.97;;;;;;;-3.87;68.70;101291.66;130202;1099;24093;-63
2020/12/06 09:07:55;;;;;;;15.27;7.23;;;;;;;-3.84;68.29;101301.23;130116;1093;23969;-64
2020/12/06 09:10:23;;;;;;;9.53;5.00;;;;;;;-3.81;68.27;101287.68;130222;1093;23181;-64
2020/12/06 09:12:50;;;;;;;16.40;5.77;;;;;;;-3.76;67.33;101290.83;130095;1093;23171;-64
2020/12/06 09:15:18;;;;;;;14.80;5.60;;;;;;;-3.73;67.71;101286.08;130235;1092;23150;-68
2020/12/06 09:17:49;;;;;;;15.00;6.10;;;;;;;-3.68;66.74;101288.39;130153;1093;23166;-69
2020/12/06 09:20:16;;;;;;;13.40;5.83;;;;;;;-3.66;67.56;101291.78;130214;1092;23358;-67
2020/12/06 09:22:44;;;;;;;12.70;5.53;;;;;;;-3.63;67.34;101288.88;130098;1093;23294;-68
2020/12/06 09:25:12;;;;;;;12.37;6.07;;;;;;;-3.58;67.47;101282.19;130221;1093;23795;-68
2020/12/06 09:27:39;;;;;;;13.00;5.87;;;;;;;-3.54;67.49;101284.61;130222;1098;24119;-69
2020/12/06 09:30:07;;;;;;;14.83;6.40;;;;;;;-3.48;66.78;101284.97;130160;1093;23219;-70
2020/12/06 09:32:36;;;;;;;16.93;7.70;;;;;;;-3.41;67.34;101279.97;130245;1098;23144;-69
2020/12/06 09:35:04;;;;;;;15.37;7.50;;;;;;;-3.37;66.66;101284.94;130158;1093;23228;-70
2020/12/06 09:37:34;;;;;;;15.53;6.27;;;;;;;-3.33;66.47;101289.06;130185;1092;23255;-68
2020/12/06 09:40:02;;;;;;;8.57;4.93;;;;;;;-3.30;66.11;101294.11;130145;1092;23159;-68
2020/12/06 09:42:30;;;;;;;17.33;6.47;;;;;;;-3.30;66.28;101282.60;130202;1093;23901;-68
2020/12/06 09:45:02;;;;;;;15.67;6.47;;;;;;;-3.27;66.07;101285.88;130176;1093;23244;-68
2020/12/06 09:47:30;;;;;;;11.37;5.23;;;;;;;-3.23;66.16;101279.33;130263;1099;23270;-68
2020/12/06 09:49:57;;;;;;;13.07;6.30;;;;;;;-3.21;65.70;101277.38;130109;1091;23153;-68
2020/12/06 09:52:26;;;;;;;14.10;5.77;;;;;;;-3.23;65.60;101266.00;130263;1093;23198;-68
2020/12/06 09:54:54;;;;;;;13.57;6.20;;;;;;;-3.22;65.69;101274.84;130175;1098;23179;-68
2020/12/06 09:57:22;;;;;;;13.07;6.33;;;;;;;-3.23;65.24;101274.00;130221;1093;23404;-68
2020/12/06 09:59:56;;;;;;;19.37;7.27;;;;;;;-3.22;65.87;101278.36;130111;1092;23159;-68
2020/12/06 10:02:23;;;;;;;14.63;6.03;;;;;;;-3.22;65.09;101265.03;130243;1098;23328;-70
2020/12/06 10:04:51;;;;;;;16.93;7.07;;;;;;;-3.19;65.90;101263.94;130143;1098;23355;-69
2020/12/06 10:07:21;;;;;;;13.47;6.53;;;;;;;-3.11;66.50;101265.95;130233;1093;23251;-69
2020/12/06 10:09:49;;;;;;;20.93;6.47;;;;;;;-3.05;65.77;101260.13;130104;1093;24197;-69
2020/12/06 10:12:17;;;;;;;15.37;5.53;;;;;;;-3.11;65.53;101241.95;130253;1098;24230;-69
2020/12/06 10:14:45;;;;;;;11.73;5.03;;;;;;;-3.02;64.31;101255.36;130160;1092;23255;-69
2020/12/06 10:17:13;;;;;;;12.23;5.20;;;;;;;-3.03;64.23;101256.33;126454;1093;24917;-70
2020/12/06 10:19:40;;;;;;;13.15;6.00;;;;;;;-3.07;64.18;101265.58;125844;1094;23856;-69
2020/12/06 10:22:08;;;;;;;14.73;6.10;;;;;;;-3.05;65.10;101266.30;125709;1092;23377;-69
2020/12/06 10:24:38;;;;;;;10.10;5.17;;;;;;;-3.03;64.51;101261.66;130267;1093;23135;-70
2020/12/06 10:27:05;;;;;;;13.80;6.60;;;;;;;-3.02;64.50;101254.51;130125;1099;23132;-70
2020/12/06 10:29:32;;;;;;;13.63;6.73;;;;;;;-3.01;64.84;101253.53;130225;1093;24155;-70
2020/12/06 10:32:02;;;;;;;14.30;6.23;;;;;;;-3.01;64.77;101254.38;130107;1091;23275;-70
2020/12/06 10:34:30;;;;;;;12.80;5.43;;;;;;;-2.97;64.49;101250.49;130278;1098;23180;-70
2020/12/06 10:36:58;;;;;;;14.73;5.67;;;;;;;-2.93;64.04;101251.09;130155;1093;23265;-69
2020/12/06 10:39:33;;;;;;;14.17;5.97;;;;;;;-2.92;64.12;101247.45;130207;1092;23244;-70
2020/12/06 10:42:02;;;;;;;15.23;5.80;;;;;;;-2.92;64.43;101244.78;130191;1093;23313;-70
2020/12/06 10:44:29;;;;;;;14.50;5.97;;;;;;;-2.89;63.64;101249.87;130208;1098;23146;-70
2020/12/06 10:46:57;;;;;;;15.80;5.30;;;;;;;-2.92;63.75;101242.97;130160;1093;23173;-68
2020/12/06 10:49:24;;;;;;;16.37;6.03;;;;;;;-2.92;63.27;101234.97;130244;1093;23155;-70
2020/12/06 10:51:52;;;;;;;10.73;5.60;;;;;;;-2.92;63.69;101239.45;130139;1098;24243;-68
2020/12/06 10:54:24;;;;;;;11.87;5.63;;;;;;;-2.92;63.58;101234.12;130209;1093;23157;-68
2020/12/06 10:56:51;;;;;;;11.80;6.03;;;;;;;-2.94;63.94;101236.91;130085;1093;23152;-69
2020/12/06 10:59:19;;;;;;;15.83;6.50;;;;;;;-2.90;63.72;101246.35;130256;1092;23446;-70
2020/12/06 11:01:47;;;;;;;13.27;6.73;;;;;;;-2.88;64.24;101235.53;130121;1093;23199;-70
2020/12/06 11:04:14;;;;;;;18.30;6.23;;;;;;;-2.87;63.92;101243.41;130248;1093;24191;-70
2020/12/06 11:06:42;;;;;;;14.77;6.90;;;;;;;-2.89;63.53;101233.87;130115;1098;25045;-70
2020/12/06 11:09:09;;;;;;;13.53;6.67;;;;;;;-2.92;63.47;101228.78;130217;1093;23213;-70
2020/12/06 11:11:37;;;;;;;16.30;6.13;;;;;;;-2.94;63.31;101236.06;130207;1093;23292;-70
2020/12/06 11:14:04;;;;;;;15.93;6.73;;;;;;;-2.92;63.39;101236.78;130119;1098;24274;-70
2020/12/06 11:16:32;;;;;;;15.47;6.77;;;;;;;-2.91;62.98;101228.66;130224;1093;23168;-70